Theale, United Kingdom
Current Conditions -  °F | °C
As of 3:50 AM on Saturday 20 Dec 2014 (Local Time) from EGUB Reporting Station
Overcast Overcast  
Wind Chill: 38°   Ceiling: 3900
Heat Index: 45°   Visibility: 6mi
Dew Point: 34°   Wind: 13mph
Humidity: 66%   Direction: 240°WSW
Pressure: 30.21"   Gusts: NA
Location:  51.44°N, 1.08°W
Report Text: EGUB 200350Z AUTO 24011KT 9999 // OVC039/// 07/01 Q1023
Loading
Personal Weather Stations






























Interactive Weather Map New forecast layout! Learn more

10-Day Weather Forecast

Advertisements
Track Severe Weather on mobile